createdAt,value
2023-05-03T00:01:10.870Z,1.00
2023-05-03T00:03:39.496Z,1.00
2023-05-03T00:06:13.789Z,1.00
2023-05-03T00:08:44.038Z,1.00
2023-05-03T00:11:13.410Z,1.00
2023-05-03T00:13:44.426Z,1.00
2023-05-03T00:16:14.992Z,1.00
2023-05-03T00:18:44.293Z,1.00
2023-05-03T00:21:16.265Z,1.00
2023-05-03T00:23:44.424Z,1.00
2023-05-03T00:26:13.780Z,1.00
2023-05-03T00:28:42.667Z,1.00
2023-05-03T00:31:11.979Z,1.00
2023-05-03T00:33:41.452Z,1.00
2023-05-03T00:36:11.026Z,1.00
2023-05-03T00:38:43.483Z,1.00
2023-05-03T00:41:13.467Z,1.00
2023-05-03T00:43:45.317Z,1.00
2023-05-03T00:46:17.464Z,1.00
2023-05-03T00:48:50.026Z,1.00
2023-05-03T00:51:21.748Z,1.00
2023-05-03T00:53:52.824Z,1.00
2023-05-03T00:56:22.907Z,1.00
2023-05-03T00:58:53.085Z,1.00
2023-05-03T01:01:23.095Z,4.50
2023-05-03T01:03:54.020Z,28.40
2023-05-03T01:06:40.778Z,61.10
2023-05-03T01:09:20.147Z,94.60
2023-05-03T01:12:04.839Z,49.60
2023-05-03T01:14:45.375Z,99.90
2023-05-03T01:17:15.583Z,99.90
2023-05-03T01:19:49.503Z,99.90
2023-05-03T01:22:27.062Z,99.90
2023-05-03T01:25:07.606Z,99.90
2023-05-03T01:27:36.033Z,99.90
2023-05-03T01:30:08.098Z,99.90
2023-05-03T01:32:56.150Z,99.90
2023-05-03T01:35:32.034Z,99.90
2023-05-03T01:38:02.008Z,99.90
2023-05-03T01:40:37.606Z,99.90
2023-05-03T01:43:05.992Z,99.90
2023-05-03T01:45:36.991Z,99.90
2023-05-03T01:48:12.270Z,99.90
2023-05-03T01:50:40.408Z,99.90
2023-05-03T01:53:09.783Z,99.90
2023-05-03T01:55:40.719Z,99.90
2023-05-03T01:58:10.202Z,99.90
2023-05-03T02:00:39.989Z,99.90
2023-05-03T02:03:09.471Z,99.90
2023-05-03T02:08:09.109Z,99.90
2023-05-03T02:10:38.715Z,99.90
2023-05-03T02:13:06.815Z,99.90
2023-05-03T02:18:08.630Z,99.90
2023-05-03T02:20:37.968Z,99.90
2023-05-03T02:23:06.370Z,99.90
2023-05-03T02:25:35.771Z,99.90
2023-05-03T02:28:06.656Z,99.90
2023-05-03T02:30:37.723Z,99.90
2023-05-03T02:33:06.196Z,99.90
2023-05-03T02:35:37.720Z,99.90
2023-05-03T02:38:07.041Z,99.90
2023-05-03T02:40:37.656Z,99.90
2023-05-03T02:43:08.525Z,99.90
2023-05-03T02:45:39.400Z,99.90
2023-05-03T02:48:09.725Z,99.90
2023-05-03T02:50:37.934Z,99.90
2023-05-03T02:53:06.138Z,99.90
2023-05-03T02:55:36.236Z,99.90
2023-05-03T02:58:04.839Z,99.90
2023-05-03T03:00:36.873Z,99.90
2023-05-03T03:03:05.236Z,99.90
2023-05-03T03:05:36.571Z,99.90
2023-05-03T03:08:06.714Z,99.90
2023-05-03T03:10:37.654Z,99.90
2023-05-03T03:15:41.923Z,99.90
2023-05-03T03:18:11.289Z,99.90
2023-05-03T03:20:39.484Z,99.90
2023-05-03T03:23:07.674Z,99.90
2023-05-03T03:25:37.012Z,99.90
2023-05-03T03:28:06.696Z,99.90
2023-05-03T03:30:36.576Z,99.90
2023-05-03T03:33:18.226Z,99.90
2023-05-03T03:35:48.272Z,99.90
2023-05-03T03:38:19.527Z,99.90
2023-05-03T03:40:55.349Z,99.90
2023-05-03T03:43:25.132Z,99.90
2023-05-03T03:45:56.049Z,99.90
2023-05-03T03:48:26.859Z,99.90
2023-05-03T03:50:58.128Z,99.90
2023-05-03T03:53:35.791Z,99.90
2023-05-03T03:56:06.699Z,99.90
2023-05-03T03:58:35.915Z,99.90
2023-05-03T04:01:06.450Z,99.90
2023-05-03T04:03:36.002Z,99.90
2023-05-03T04:08:34.900Z,99.90
2023-05-03T04:11:05.598Z,99.90
2023-05-03T04:13:38.864Z,1.00
2023-05-03T04:16:08.918Z,1.00
2023-05-03T04:18:39.675Z,1.00
2023-05-03T04:21:10.758Z,1.00
2023-05-03T04:23:39.362Z,99.90
2023-05-03T04:26:23.462Z,1.00
2023-05-03T04:31:35.746Z,1.00
2023-05-03T04:34:07.736Z,1.00
2023-05-03T04:36:36.025Z,1.00
2023-05-03T04:39:07.851Z,1.00
2023-05-03T04:44:08.096Z,1.00
2023-05-03T04:46:36.934Z,1.00
2023-05-03T04:49:08.096Z,1.00
2023-05-03T04:51:37.793Z,1.00
2023-05-03T04:54:07.413Z,1.00
2023-05-03T04:56:35.956Z,1.00
2023-05-03T04:59:14.018Z,1.00
2023-05-03T05:01:43.518Z,1.00
2023-05-03T05:04:15.776Z,1.00
2023-05-03T05:06:51.688Z,1.00
2023-05-03T05:09:26.140Z,1.00
2023-05-03T05:11:59.365Z,1.00
2023-05-03T05:14:34.304Z,1.00
2023-05-03T05:17:04.220Z,1.00
2023-05-03T05:19:33.877Z,1.00
2023-05-03T05:22:02.771Z,1.00
2023-05-03T05:24:54.682Z,1.00
2023-05-03T05:27:25.374Z,1.00
2023-05-03T05:29:57.375Z,1.00
2023-05-03T05:32:27.045Z,99.90
2023-05-03T05:34:59.253Z,99.90
2023-05-03T05:37:30.046Z,99.90
2023-05-03T05:40:02.727Z,99.90
2023-05-03T05:42:37.084Z,14.80
2023-05-03T05:45:09.537Z,1.00
2023-05-03T05:50:18.157Z,1.00
2023-05-03T05:52:54.016Z,1.00
2023-05-03T05:55:26.887Z,1.00
2023-05-03T06:00:30.754Z,1.00
2023-05-03T06:03:00.250Z,1.00
2023-05-03T06:05:31.156Z,1.00
2023-05-03T06:10:29.522Z,1.00
2023-05-03T06:12:58.850Z,1.00
2023-05-03T06:18:00.452Z,1.00
2023-05-03T06:20:31.491Z,1.00
2023-05-03T06:23:01.679Z,1.00
2023-05-03T06:25:31.050Z,1.00
2023-05-03T06:28:00.434Z,1.00
2023-05-03T06:30:33.654Z,1.00
2023-05-03T06:33:08.431Z,1.00
2023-05-03T06:35:40.825Z,1.00
2023-05-03T06:38:11.887Z,1.00
2023-05-03T06:40:41.634Z,1.00
2023-05-03T06:43:09.796Z,1.00
2023-05-03T06:45:46.553Z,1.00
2023-05-03T06:48:16.113Z,1.00
2023-05-03T06:50:48.113Z,1.00
2023-05-03T06:55:47.846Z,1.00
2023-05-03T06:58:17.266Z,1.00
2023-05-03T07:00:48.094Z,1.00
2023-05-03T07:03:16.343Z,1.00
2023-05-03T07:05:47.478Z,1.00
2023-05-03T07:08:17.762Z,1.00
2023-05-03T07:10:47.143Z,1.00
2023-05-03T07:15:46.970Z,1.00
2023-05-03T07:18:16.695Z,1.00
2023-05-03T07:20:47.568Z,1.00
2023-05-03T07:23:17.035Z,1.00
2023-05-03T07:28:17.343Z,1.00
2023-05-03T07:30:46.761Z,1.00
2023-05-03T07:33:15.196Z,1.00
2023-05-03T07:38:14.750Z,1.00
2023-05-03T07:40:45.847Z,1.00
2023-05-03T07:43:14.098Z,1.00
2023-05-03T07:45:42.136Z,1.00
2023-05-03T07:48:11.788Z,1.00
2023-05-03T07:50:45.122Z,1.00
2023-05-03T07:53:15.246Z,1.00
2023-05-03T07:55:44.691Z,1.00
2023-05-03T07:58:14.177Z,1.00
2023-05-03T08:00:44.935Z,1.00
2023-05-03T08:03:13.286Z,1.00
2023-05-03T08:05:43.283Z,1.00
2023-05-03T08:10:44.808Z,1.00
2023-05-03T08:13:13.101Z,1.00
2023-05-03T08:15:42.731Z,1.00
2023-05-03T08:18:11.082Z,1.00
2023-05-03T08:20:40.740Z,1.00
2023-05-03T08:23:11.204Z,1.00
2023-05-03T08:25:39.357Z,1.00
2023-05-03T08:28:10.349Z,1.00
2023-05-03T08:30:39.112Z,1.00
2023-05-03T08:33:09.897Z,1.00
2023-05-03T08:35:40.948Z,1.00
2023-05-03T08:38:10.381Z,1.00
2023-05-03T08:40:41.464Z,1.00
2023-05-03T08:43:11.509Z,1.00
2023-05-03T08:45:42.622Z,1.00
2023-05-03T08:48:10.950Z,1.00
2023-05-03T08:50:45.821Z,1.00
2023-05-03T08:53:14.143Z,1.00
2023-05-03T08:55:43.926Z,1.00
2023-05-03T08:58:13.740Z,1.00
2023-05-03T09:00:45.352Z,1.00
2023-05-03T09:03:15.013Z,1.00
2023-05-03T09:05:47.806Z,1.00
2023-05-03T09:08:17.125Z,1.00
2023-05-03T09:10:47.844Z,1.00
2023-05-03T09:13:18.599Z,1.00
2023-05-03T09:15:56.967Z,1.00
2023-05-03T09:18:27.123Z,1.00
2023-05-03T09:20:58.682Z,1.00
2023-05-03T09:23:32.762Z,1.00
2023-05-03T09:26:02.332Z,1.00
2023-05-03T09:28:43.619Z,1.00
2023-05-03T09:31:13.534Z,1.00
2023-05-03T09:33:43.111Z,1.00
2023-05-03T09:36:12.281Z,1.00
2023-05-03T09:38:40.884Z,1.00
2023-05-03T09:41:10.395Z,1.00
2023-05-03T09:43:49.544Z,1.00
2023-05-03T09:46:21.929Z,1.00
2023-05-03T09:48:54.161Z,1.00
2023-05-03T09:51:24.787Z,1.00
2023-05-03T09:53:53.352Z,1.00
2023-05-03T09:56:26.590Z,1.00
2023-05-03T09:58:56.419Z,1.00
2023-05-03T10:01:25.958Z,1.00
2023-05-03T10:03:57.964Z,1.00
2023-05-03T10:06:32.056Z,1.00
2023-05-03T10:09:08.525Z,1.00
2023-05-03T10:11:38.872Z,1.00
2023-05-03T10:14:10.836Z,1.00
2023-05-03T10:16:43.213Z,1.00
2023-05-03T10:19:20.316Z,1.00
2023-05-03T10:22:00.873Z,1.00
2023-05-03T10:24:30.699Z,1.00
2023-05-03T10:27:00.450Z,1.00
2023-05-03T10:29:53.441Z,1.00
2023-05-03T10:32:46.768Z,1.00
2023-05-03T10:35:19.481Z,1.00
2023-05-03T10:37:50.968Z,1.00
2023-05-03T10:40:21.664Z,1.00
2023-05-03T10:42:57.825Z,1.00
2023-05-03T10:45:30.725Z,1.00
2023-05-03T10:48:22.902Z,1.00
2023-05-03T10:50:53.126Z,1.00
2023-05-03T10:53:43.337Z,1.00
2023-05-03T10:56:14.746Z,1.00
2023-05-03T10:58:46.320Z,1.00
2023-05-03T11:01:20.523Z,1.00
2023-05-03T11:04:02.875Z,1.00
2023-05-03T11:06:37.237Z,1.00
2023-05-03T11:09:09.330Z,1.00
2023-05-03T11:11:41.141Z,1.00
2023-05-03T11:14:13.033Z,1.00
2023-05-03T11:16:48.280Z,1.00
2023-05-03T11:19:17.227Z,1.00
2023-05-03T11:21:47.770Z,1.00
2023-05-03T11:24:18.332Z,1.00
2023-05-03T11:26:46.603Z,1.00
2023-05-03T11:29:17.742Z,1.00
2023-05-03T11:31:48.709Z,1.00
2023-05-03T11:34:18.836Z,1.00
2023-05-03T11:36:49.343Z,1.00
2023-05-03T11:39:18.952Z,1.00
2023-05-03T11:42:04.810Z,1.00
2023-05-03T11:44:36.662Z,1.00
2023-05-03T11:47:07.821Z,1.00
2023-05-03T11:49:38.973Z,1.00
2023-05-03T11:52:07.404Z,1.00
2023-05-03T11:54:38.726Z,1.00
2023-05-03T11:57:14.670Z,1.00
2023-05-03T11:59:44.748Z,1.00
2023-05-03T12:02:16.915Z,1.00
2023-05-03T12:04:46.560Z,1.00
2023-05-03T12:07:19.223Z,1.00
2023-05-03T12:10:01.180Z,1.00
2023-05-03T12:12:42.057Z,1.00
2023-05-03T12:15:16.667Z,1.00
2023-05-03T12:17:49.648Z,1.00
2023-05-03T12:22:58.025Z,1.00
2023-05-03T12:25:33.984Z,1.00
2023-05-03T12:28:19.668Z,1.00
2023-05-03T12:30:56.068Z,1.00
2023-05-03T12:33:28.578Z,1.00
2023-05-03T12:35:59.282Z,1.00
2023-05-03T12:38:31.156Z,1.00
2023-05-03T12:41:01.283Z,1.00
2023-05-03T12:43:30.875Z,1.00
2023-05-03T12:46:25.816Z,1.00
2023-05-03T12:48:54.336Z,1.00
2023-05-03T12:51:25.875Z,1.00
2023-05-03T12:53:55.608Z,1.00
2023-05-03T12:56:31.876Z,1.00
2023-05-03T12:59:33.900Z,1.00
2023-05-03T13:07:01.226Z,1.00
2023-05-03T13:10:12.569Z,1.00
2023-05-03T13:12:23.201Z,1.00
2023-05-03T13:14:56.126Z,1.00
2023-05-03T13:17:24.425Z,1.00
2023-05-03T13:19:56.779Z,1.00
2023-05-03T13:22:25.232Z,1.00
2023-05-03T13:24:56.095Z,1.00
2023-05-03T13:27:24.768Z,1.00
2023-05-03T13:29:54.329Z,1.00
2023-05-03T13:32:24.441Z,1.00
2023-05-03T13:34:55.737Z,1.00
2023-05-03T13:37:25.499Z,1.00
2023-05-03T13:39:57.179Z,1.00
2023-05-03T13:42:25.659Z,1.00
2023-05-03T13:44:53.927Z,1.00
2023-05-03T13:47:23.512Z,1.00
2023-05-03T13:49:59.608Z,1.00
2023-05-03T13:52:27.982Z,1.00
2023-05-03T13:54:57.802Z,1.00
2023-05-03T13:57:26.332Z,1.00
2023-05-03T13:59:54.654Z,1.00
2023-05-03T14:02:24.265Z,1.00
2023-05-03T14:04:54.748Z,1.00
2023-05-03T14:07:24.559Z,1.00
2023-05-03T14:09:54.078Z,1.00
2023-05-03T14:12:22.451Z,1.00
2023-05-03T14:14:52.300Z,1.00
2023-05-03T14:17:21.776Z,1.00
2023-05-03T14:19:52.294Z,1.00
2023-05-03T14:22:20.710Z,1.00
2023-05-03T14:24:53.984Z,1.00
2023-05-03T14:27:23.291Z,1.00
2023-05-03T14:29:54.298Z,1.00
2023-05-03T14:32:25.722Z,1.00
2023-05-03T14:34:55.525Z,1.00
2023-05-03T14:37:24.183Z,1.00
2023-05-03T14:39:56.413Z,1.00
2023-05-03T14:42:26.074Z,1.00
2023-05-03T14:44:55.515Z,1.00
2023-05-03T14:47:24.128Z,1.00
2023-05-03T14:49:54.978Z,1.00
2023-05-03T14:52:24.772Z,1.00
2023-05-03T14:54:55.801Z,1.00
2023-05-03T14:57:25.368Z,1.00
2023-05-03T14:59:55.050Z,1.00
2023-05-03T15:02:24.488Z,1.00
2023-05-03T15:04:55.373Z,1.00
2023-05-03T15:07:25.284Z,1.00
2023-05-03T15:09:56.153Z,1.00
2023-05-03T15:12:25.666Z,1.00
2023-05-03T15:14:55.818Z,1.00
2023-05-03T15:17:25.476Z,1.00
2023-05-03T15:22:22.282Z,1.00
2023-05-03T15:24:52.221Z,1.00
2023-05-03T15:27:24.890Z,1.00
2023-05-03T15:29:54.803Z,1.00
2023-05-03T15:32:25.201Z,1.00
2023-05-03T15:34:53.477Z,1.00
2023-05-03T15:37:23.469Z,1.00
2023-05-03T15:39:54.194Z,1.00
2023-05-03T15:42:23.676Z,1.00
2023-05-03T15:44:52.244Z,1.00
2023-05-03T15:47:22.668Z,1.00
2023-05-03T15:49:52.431Z,1.00
2023-05-03T15:52:23.240Z,1.00
2023-05-03T15:54:54.845Z,1.00
2023-05-03T15:57:24.615Z,1.00
2023-05-03T15:59:56.232Z,1.00
2023-05-03T16:02:25.754Z,1.00
2023-05-03T16:04:55.227Z,1.00
2023-05-03T16:07:26.529Z,1.00
2023-05-03T16:09:57.569Z,1.00
2023-05-03T16:12:28.702Z,1.00
2023-05-03T16:14:57.562Z,1.00
2023-05-03T16:17:26.247Z,1.00
2023-05-03T16:19:55.768Z,1.00
2023-05-03T16:22:24.150Z,1.00
2023-05-03T16:24:55.431Z,1.00
2023-05-03T16:27:24.843Z,1.00
2023-05-03T16:29:55.748Z,1.00
2023-05-03T16:32:25.297Z,1.00
2023-05-03T16:39:55.098Z,1.00
2023-05-03T16:42:23.553Z,1.00
2023-05-03T16:44:52.332Z,1.00
2023-05-03T16:47:23.366Z,1.00
2023-05-03T16:49:52.815Z,1.00
2023-05-03T16:52:21.260Z,1.00
2023-05-03T16:54:49.625Z,1.00
2023-05-03T16:59:47.600Z,1.00
2023-05-03T17:02:17.145Z,1.00
2023-05-03T17:04:48.618Z,1.00
2023-05-03T17:07:17.911Z,1.00
2023-05-03T17:09:47.316Z,1.00
2023-05-03T17:12:16.749Z,1.00
2023-05-03T17:14:47.723Z,1.00
2023-05-03T17:17:17.365Z,1.00
2023-05-03T17:19:49.255Z,1.00
2023-05-03T17:22:18.630Z,1.00
2023-05-03T17:24:49.502Z,1.00
2023-05-03T17:27:21.618Z,1.00
2023-05-03T17:29:51.562Z,1.00
2023-05-03T17:32:19.743Z,1.00
2023-05-03T17:34:51.022Z,1.00
2023-05-03T17:37:19.313Z,1.00
2023-05-03T17:39:47.467Z,1.00
2023-05-03T17:47:16.737Z,1.00
2023-05-03T17:49:46.676Z,1.00
2023-05-03T17:52:16.943Z,1.00
2023-05-03T17:54:47.392Z,1.00
2023-05-03T17:59:45.478Z,1.00
2023-05-03T18:02:14.922Z,1.00
2023-05-03T18:04:43.388Z,1.00
2023-05-03T18:07:11.704Z,1.00
2023-05-03T18:09:42.348Z,1.00
2023-05-03T18:12:11.705Z,1.00
2023-05-03T18:14:41.353Z,1.00
2023-05-03T18:17:09.456Z,1.00
2023-05-03T18:19:38.815Z,1.00
2023-05-03T18:22:08.133Z,1.00
2023-05-03T18:27:08.231Z,1.00
2023-05-03T18:29:37.560Z,1.00
2023-05-03T18:32:07.802Z,1.00
2023-05-03T18:37:07.083Z,1.00
2023-05-03T18:42:07.664Z,1.00
2023-05-03T18:47:07.460Z,1.00
2023-05-03T18:54:37.008Z,1.00
2023-05-03T18:57:07.857Z,1.00
2023-05-03T18:59:45.518Z,1.00
2023-05-03T19:02:17.268Z,1.00
2023-05-03T19:04:48.020Z,1.00
2023-05-03T19:07:16.166Z,1.00
2023-05-03T19:09:45.480Z,1.00
2023-05-03T19:12:15.837Z,1.00
2023-05-03T19:14:45.253Z,1.00
2023-05-03T19:19:43.063Z,1.00
2023-05-03T19:22:12.395Z,1.00
2023-05-03T19:24:44.945Z,1.00
2023-05-03T19:27:14.448Z,1.00
2023-05-03T19:29:44.990Z,1.00
2023-05-03T19:32:14.449Z,1.00
2023-05-03T19:34:44.966Z,1.00
2023-05-03T19:37:13.109Z,1.00
2023-05-03T19:39:42.430Z,1.00
2023-05-03T19:42:10.564Z,1.00
2023-05-03T19:44:40.218Z,1.00
2023-05-03T19:47:09.865Z,1.00
2023-05-03T19:49:39.220Z,1.00
2023-05-03T19:52:07.361Z,1.00
2023-05-03T19:54:36.683Z,1.00
2023-05-03T19:57:05.949Z,1.00
2023-05-03T19:59:35.792Z,1.00
2023-05-03T20:02:05.191Z,1.00
2023-05-03T20:04:35.782Z,1.00
2023-05-03T20:07:05.112Z,1.00
2023-05-03T20:09:33.476Z,1.00
2023-05-03T20:12:02.783Z,1.00
2023-05-03T20:14:33.547Z,1.00
2023-05-03T20:19:35.097Z,1.00
2023-05-03T20:22:03.229Z,1.00
2023-05-03T20:24:34.064Z,1.00
2023-05-03T20:27:04.202Z,1.00
2023-05-03T20:29:34.282Z,1.00
2023-05-03T20:32:02.907Z,1.00
2023-05-03T20:34:30.894Z,1.00
2023-05-03T20:37:01.562Z,1.00
2023-05-03T20:39:29.926Z,1.00
2023-05-03T20:41:58.258Z,1.00
2023-05-03T20:44:27.582Z,1.00
2023-05-03T20:46:56.996Z,1.00
2023-05-03T20:49:25.253Z,1.00
2023-05-03T20:51:53.525Z,1.00
2023-05-03T20:54:24.336Z,1.00
2023-05-03T20:56:53.631Z,1.00
2023-05-03T20:59:23.254Z,1.00
2023-05-03T21:01:52.262Z,1.00
2023-05-03T21:04:21.654Z,1.00
2023-05-03T21:06:51.012Z,1.00
2023-05-03T21:09:19.161Z,1.00
2023-05-03T21:11:48.628Z,1.00
2023-05-03T21:14:19.704Z,1.00
2023-05-03T21:16:48.942Z,1.00
2023-05-03T21:19:17.060Z,1.00
2023-05-03T21:24:16.217Z,1.00
2023-05-03T21:26:44.456Z,1.00
2023-05-03T21:29:13.997Z,1.00
2023-05-03T21:34:12.116Z,1.00
2023-05-03T21:36:41.514Z,1.00
2023-05-03T21:39:11.031Z,1.00
2023-05-03T21:41:40.392Z,1.00
2023-05-03T21:44:08.686Z,1.00
2023-05-03T21:46:38.158Z,1.00
2023-05-03T21:49:07.672Z,1.00
2023-05-03T21:51:37.116Z,1.00
2023-05-03T21:54:05.743Z,1.00
2023-05-03T21:56:33.778Z,1.00
2023-05-03T21:59:01.680Z,1.00
2023-05-03T22:01:31.425Z,1.00
2023-05-03T22:04:02.625Z,1.00
2023-05-03T22:06:33.826Z,1.00
2023-05-03T22:09:03.174Z,1.00
2023-05-03T22:11:33.889Z,1.00
2023-05-03T22:14:07.370Z,1.00
2023-05-03T22:16:37.458Z,1.00
2023-05-03T22:19:08.337Z,1.00
2023-05-03T22:21:37.660Z,1.00
2023-05-03T22:24:07.726Z,1.00
2023-05-03T22:26:38.360Z,1.00
2023-05-03T22:29:06.543Z,1.00
2023-05-03T22:34:03.623Z,1.00
2023-05-03T22:36:34.393Z,1.00
2023-05-03T22:39:06.524Z,1.00
2023-05-03T22:41:35.831Z,1.00
2023-05-03T22:44:04.062Z,1.00
2023-05-03T22:46:33.554Z,1.00
2023-05-03T22:49:02.129Z,1.00
2023-05-03T22:51:32.946Z,1.00
2023-05-03T22:54:03.731Z,1.00
2023-05-03T22:56:34.372Z,1.00
2023-05-03T22:59:04.880Z,1.00
2023-05-03T23:01:34.284Z,1.00
2023-05-03T23:04:03.957Z,1.00
2023-05-03T23:06:32.518Z,1.00
2023-05-03T23:09:04.434Z,1.00
2023-05-03T23:11:33.770Z,1.00
2023-05-03T23:14:01.828Z,1.00
2023-05-03T23:16:31.239Z,1.00
2023-05-03T23:19:00.576Z,1.00
2023-05-03T23:21:28.714Z,1.00
2023-05-03T23:23:57.986Z,1.00
2023-05-03T23:26:29.087Z,1.00
2023-05-03T23:28:58.796Z,1.00
2023-05-03T23:34:04.958Z,1.00
2023-05-03T23:36:34.068Z,1.00
2023-05-03T23:39:04.294Z,1.00
2023-05-03T23:41:36.207Z,1.00
2023-05-03T23:46:34.569Z,1.00
2023-05-03T23:49:02.822Z,1.00
2023-05-03T23:51:30.976Z,1.00
2023-05-03T23:53:59.261Z,1.00
2023-05-03T23:56:27.430Z,1.00
2023-05-03T23:58:56.807Z,1.00
